首页
METAR-TAF:

METAR-TAF

机场 :

巴克烏, 罗马尼亚

纬度: 46-35N, 经度: 026-58E, 海拔: 184米

当前天气观测

该预报发布于18分钟前的02:00 UTC
风速3节,风向北转西北
温度 19°C
湿度 88%
气压 1019 hPa
能见度10公里或以上
1500米以下无云,无积雨云

METAR: LRBC 220200Z 34003KT CAVOK 19/17 Q1019

时间: 05:18 (02:18 UTC)

预报

该预报发布于3小时和18分钟前的23:00 UTC
预报有效从22日的 00点(UTC)到 22日的 09点(UTC)
风速4节,风向多变
能见度10公里或以上
1500米以下无云,无积雨云
成为
从 22日的 07点(UTC)到 22日的 09点(UTC)
风速10节,风向
散云层高于4000英尺, 积雨云.

TAF: LRBC 212300Z 2200/2209 VRB04KT CAVOK BECMG 2207/2209 35010KT SCT040CB

超过4000个机场的气象观测和天气预报(METAR&TAF报告)。

可查询的气象台以黄色和红色小点在地图上表示。

将鼠标移到小点上方,可查看气象台名称。

然后点击查看天气观测和预报。

如需切换地图:点击带黑十字的绿色按钮放大地图;点击带横线的绿色按钮缩小地图;或者点击绿色箭头查看邻近地区的地图。


METAR-TAF: